Time;durP1;ratioP1;P1;durP2;ratioP2;P2;SDS_P1;SDS_P2;PMS_P1;PMS_P2;Temp;Humidity;BMP_temperature;BMP_pressure;BME280_temperature;BME280_humidity;BME280_pressure;Samples;Min_cycle;Max_cycle;Signal;HPM_P1;HPM_P2
2022/05/22 00:00:46;;;;;;;7.10;3.75;;;13.90;99.90;;;;;;5029639;28;20033;-66
2022/05/22 00:03:13;;;;;;;7.45;4.28;;;13.90;99.90;;;;;;5032391;28;20037;-64
2022/05/22 00:05:40;;;;;;;9.20;4.60;;;13.80;99.90;;;;;;5032773;28;20505;-65
2022/05/22 00:08:07;;;;;;;8.98;4.65;;;13.80;99.90;;;;;;5030122;28;20042;-65
2022/05/22 00:10:35;;;;;;;10.32;5.35;;;13.80;99.90;;;;;;5029522;28;20586;-65
2022/05/22 00:13:02;;;;;;;7.82;4.70;;;13.70;99.90;;;;;;5037414;28;20049;-65
2022/05/22 00:15:30;;;;;;;8.30;4.72;;;13.70;99.90;;;;;;5034756;28;20041;-65
2022/05/22 00:17:57;;;;;;;9.48;5.20;;;13.70;99.90;;;;;;5029279;28;20041;-66
2022/05/22 00:20:24;;;;;;;9.02;5.22;;;13.70;99.90;;;;;;5015738;28;20037;-65
2022/05/22 00:22:52;;;;;;;10.32;4.88;;;13.60;99.90;;;;;;5029383;28;20496;-66
2022/05/22 00:25:19;;;;;;;8.90;4.63;;;13.60;99.90;;;;;;5038958;28;20130;-66
2022/05/22 00:27:46;;;;;;;9.55;5.22;;;13.60;99.90;;;;;;5029393;28;20073;-65
2022/05/22 00:30:14;;;;;;;9.38;4.82;;;13.50;99.90;;;;;;5027664;28;20030;-66
2022/05/22 00:32:45;;;;;;;7.80;4.80;;;13.40;99.90;;;;;;5037690;28;20045;-65
2022/05/22 00:35:13;;;;;;;10.90;5.00;;;13.30;99.90;;;;;;5031500;28;20112;-65
2022/05/22 00:37:40;;;;;;;10.55;4.85;;;13.30;99.90;;;;;;5036061;28;20121;-65
2022/05/22 00:40:08;;;;;;;8.15;4.90;;;13.30;99.90;;;;;;5036122;28;20134;-66
2022/05/22 00:42:36;;;;;;;10.07;4.75;;;13.20;99.90;;;;;;5033989;28;20106;-66
2022/05/22 00:45:05;;;;;;;12.50;4.65;;;13.10;99.90;;;;;;5030297;28;20404;-66
2022/05/22 00:47:32;;;;;;;7.93;4.65;;;13.10;99.90;;;;;;5038195;28;20515;-66
2022/05/22 00:50:04;;;;;;;8.27;4.65;;;13.00;99.90;;;;;;5037556;28;20049;-66
2022/05/22 00:52:45;;;;;;;9.32;5.13;;;13.00;99.90;;;;;;5038310;28;20096;-65
2022/05/22 00:55:20;;;;;;;7.93;4.93;;;12.90;99.90;;;;;;5038495;28;20034;-66
2022/05/22 00:57:56;;;;;;;11.70;4.68;;;12.90;99.90;;;;;;5034607;28;20128;-64
2022/05/22 01:00:28;;;;;;;11.07;5.57;;;13.00;99.90;;;;;;5029407;28;20049;-67
2022/05/22 01:05:44;;;;;;;12.80;5.47;;;13.10;99.90;;;;;;5028902;28;20111;-66
2022/05/22 01:08:12;;;;;;;7.75;5.05;;;13.10;99.90;;;;;;5032828;28;20445;-66
2022/05/22 01:10:47;;;;;;;10.80;5.00;;;13.10;99.90;;;;;;5032513;28;20072;-66
2022/05/22 01:13:18;;;;;;;9.60;5.45;;;13.20;99.90;;;;;;5031935;28;20069;-66
2022/05/22 01:15:46;;;;;;;7.32;4.35;;;13.20;99.90;;;;;;5032813;28;20120;-66
2022/05/22 01:18:13;;;;;;;14.60;4.97;;;13.30;99.90;;;;;;5035060;28;20424;-66
2022/05/22 01:20:50;;;;;;;6.80;4.90;;;13.30;99.90;;;;;;5019402;28;20120;-65
2022/05/22 01:23:21;;;;;;;8.88;4.93;;;13.30;99.90;;;;;;5018147;28;20481;-66
2022/05/22 01:25:50;;;;;;;8.18;5.13;;;13.30;99.90;;;;;;5026678;28;20029;-66
2022/05/22 01:28:20;;;;;;;10.90;5.68;;;13.30;99.90;;;;;;5034314;28;20045;-65
2022/05/22 01:30:49;;;;;;;7.15;4.90;;;13.30;99.90;;;;;;5024818;28;20075;-66
2022/05/22 01:33:17;;;;;;;9.50;5.07;;;13.30;99.90;;;;;;5036210;28;20454;-66
2022/05/22 01:35:44;;;;;;;7.55;4.97;;;13.30;99.90;;;;;;5039103;28;20047;-67
2022/05/22 01:38:11;;;;;;;8.70;5.15;;;13.30;99.90;;;;;;5030036;28;20041;-66
2022/05/22 01:40:42;;;;;;;10.40;5.13;;;13.20;99.90;;;;;;5037625;28;20068;-65
2022/05/22 01:43:10;;;;;;;8.52;5.57;;;13.10;99.90;;;;;;5037610;28;20068;-65
2022/05/22 01:45:42;;;;;;;9.02;5.32;;;13.10;99.90;;;;;;5037762;28;20416;-65
2022/05/22 01:48:10;;;;;;;9.38;5.53;;;13.10;99.90;;;;;;5031057;28;20092;-66
2022/05/22 01:50:41;;;;;;;10.45;5.45;;;13.10;99.90;;;;;;5035344;28;20445;-66
2022/05/22 01:53:11;;;;;;;11.23;6.53;;;13.10;99.90;;;;;;5027941;28;20049;-64
2022/05/22 01:55:39;;;;;;;8.93;5.63;;;13.10;99.90;;;;;;5028891;28;20479;-65
2022/05/22 01:58:07;;;;;;;9.65;5.50;;;13.10;99.90;;;;;;5026608;28;20485;-65
2022/05/22 02:00:38;;;;;;;10.93;5.97;;;13.10;99.90;;;;;;5040308;28;20041;-66
2022/05/22 02:03:07;;;;;;;8.43;5.72;;;13.10;99.90;;;;;;5040311;28;20071;-65
2022/05/22 02:05:36;;;;;;;9.52;5.80;;;13.10;99.90;;;;;;5028471;28;20052;-65
2022/05/22 02:08:19;;;;;;;9.77;6.05;;;13.10;99.90;;;;;;5038843;28;20046;-65
2022/05/22 02:10:58;;;;;;;11.13;5.43;;;13.10;99.90;;;;;;5041665;28;20526;-64
2022/05/22 02:13:30;;;;;;;8.57;5.35;;;13.10;99.90;;;;;;5026876;28;20449;-64
2022/05/22 02:15:58;;;;;;;11.10;5.50;;;13.00;99.90;;;;;;5025690;28;20045;-66
2022/05/22 02:18:28;;;;;;;11.82;5.97;;;13.10;99.90;;;;;;5029501;28;20042;-65
2022/05/22 02:20:56;;;;;;;8.25;5.18;;;13.10;99.90;;;;;;5029830;28;20595;-66
2022/05/22 02:23:24;;;;;;;8.95;5.50;;;13.10;99.90;;;;;;5030004;28;20464;-65
2022/05/22 02:25:53;;;;;;;10.57;5.93;;;13.10;99.90;;;;;;5017134;28;20069;-65
2022/05/22 02:28:24;;;;;;;10.07;5.63;;;13.20;99.90;;;;;;5015632;28;20044;-65
2022/05/22 02:30:58;;;;;;;8.20;5.22;;;13.30;99.90;;;;;;5036257;28;20037;-64
2022/05/22 02:33:26;;;;;;;8.85;5.10;;;13.30;99.90;;;;;;5034609;28;20053;-65
2022/05/22 02:36:14;;;;;;;7.10;4.90;;;13.40;99.90;;;;;;5036021;28;20053;-64
2022/05/22 02:38:44;;;;;;;7.53;4.38;;;13.40;99.90;;;;;;5034270;28;20544;-66
2022/05/22 02:41:16;;;;;;;7.88;4.70;;;13.40;99.90;;;;;;5036074;28;20667;-66
2022/05/22 02:44:10;;;;;;;9.63;5.20;;;13.50;99.90;;;;;;5036135;28;20049;-65
2022/05/22 02:46:37;;;;;;;10.18;4.90;;;13.50;99.90;;;;;;5033033;28;20596;-65
2022/05/22 02:49:05;;;;;;;11.18;5.35;;;13.50;99.90;;;;;;5037058;28;20112;-65
2022/05/22 02:51:37;;;;;;;9.50;5.03;;;13.50;99.90;;;;;;5035850;28;20442;-65
2022/05/22 02:54:05;;;;;;;7.97;4.72;;;13.40;99.90;;;;;;5034974;28;20107;-65
2022/05/22 02:56:55;;;;;;;6.30;4.35;;;13.40;99.90;;;;;;5036831;28;20459;-65
2022/05/22 02:59:23;;;;;;;7.60;4.45;;;13.30;99.90;;;;;;5034382;28;20115;-64
2022/05/22 03:02:10;;;;;;;8.18;4.90;;;13.30;99.90;;;;;;5044392;28;20052;-65
2022/05/22 03:04:38;;;;;;;9.20;4.28;;;13.20;99.90;;;;;;5028784;28;20047;-66
2022/05/22 03:07:12;;;;;;;8.68;5.00;;;13.20;99.90;;;;;;5028882;28;20656;-66
2022/05/22 03:09:42;;;;;;;7.05;4.53;;;13.00;99.90;;;;;;5046758;28;20095;-65
2022/05/22 03:12:18;;;;;;;6.90;4.80;;;13.00;99.90;;;;;;5029745;28;20453;-65
2022/05/22 03:14:54;;;;;;;9.05;5.05;;;13.00;99.90;;;;;;5046686;28;20041;-66
2022/05/22 03:17:22;;;;;;;8.45;4.32;;;13.00;99.90;;;;;;5041269;28;20582;-66
2022/05/22 03:19:55;;;;;;;8.75;4.65;;;13.10;99.90;;;;;;5029906;28;20515;-65
2022/05/22 03:22:23;;;;;;;8.10;4.80;;;13.10;99.90;;;;;;5029516;28;20114;-65
2022/05/22 03:24:51;;;;;;;6.35;4.50;;;13.20;99.90;;;;;;5027057;28;20091;-65
2022/05/22 03:27:20;;;;;;;9.63;4.63;;;13.20;99.90;;;;;;5036643;28;20076;-65
2022/05/22 03:29:51;;;;;;;11.13;4.80;;;13.20;99.90;;;;;;5037361;28;20550;-64
2022/05/22 03:32:18;;;;;;;7.80;4.88;;;13.30;99.90;;;;;;5036178;28;20049;-66
2022/05/22 03:34:48;;;;;;;8.23;4.60;;;13.30;99.90;;;;;;5028258;28;20706;-66
2022/05/22 03:37:15;;;;;;;10.75;5.18;;;13.20;99.90;;;;;;5034052;28;20050;-66
2022/05/22 03:39:43;;;;;;;7.13;4.78;;;13.20;99.90;;;;;;5030969;28;20055;-66
2022/05/22 03:42:11;;;;;;;7.30;4.18;;;13.20;99.90;;;;;;5039465;28;20049;-66
2022/05/22 03:44:39;;;;;;;8.38;4.47;;;13.20;99.90;;;;;;5034521;28;20045;-66
2022/05/22 03:47:07;;;;;;;7.63;4.47;;;13.20;99.90;;;;;;5046655;28;20400;-66
2022/05/22 03:49:56;;;;;;;7.05;4.03;;;13.20;99.90;;;;;;5044391;28;20048;-66
2022/05/22 03:52:23;;;;;;;10.07;4.70;;;13.20;99.90;;;;;;5037614;28;20046;-66
2022/05/22 03:54:52;;;;;;;7.50;4.47;;;13.20;99.90;;;;;;5028767;28;20049;-66
2022/05/22 03:57:20;;;;;;;9.77;4.68;;;13.20;99.90;;;;;;5028348;28;20515;-66
2022/05/22 03:59:47;;;;;;;9.23;4.82;;;13.20;99.90;;;;;;5038975;28;20048;-66
2022/05/22 04:02:16;;;;;;;8.05;5.00;;;13.20;99.90;;;;;;5033272;28;20050;-65
2022/05/22 04:04:45;;;;;;;10.57;5.35;;;13.10;99.90;;;;;;5027398;28;20505;-66
2022/05/22 04:07:18;;;;;;;8.48;4.97;;;13.10;99.90;;;;;;5036529;28;20045;-65
2022/05/22 04:09:47;;;;;;;8.68;4.70;;;13.20;99.90;;;;;;5037539;28;20500;-66
2022/05/22 04:12:20;;;;;;;7.60;4.65;;;13.10;99.90;;;;;;5034391;28;20459;-65
2022/05/22 04:14:53;;;;;;;7.53;5.00;;;13.20;99.90;;;;;;5037434;28;20381;-66
2022/05/22 04:17:21;;;;;;;7.17;4.63;;;13.20;99.90;;;;;;5037866;28;20055;-65
2022/05/22 04:19:49;;;;;;;8.68;5.00;;;13.30;99.90;;;;;;5036039;28;20645;-65
2022/05/22 04:22:17;;;;;;;10.43;6.10;;;13.30;99.90;;;;;;5033743;28;20561;-65
2022/05/22 04:27:37;;;;;;;9.77;6.60;;;13.40;99.90;;;;;;5010097;28;20548;-65
2022/05/22 04:30:07;;;;;;;9.77;6.30;;;13.60;99.90;;;;;;5023378;28;20044;-65
2022/05/22 04:32:48;;;;;;;9.90;6.28;;;13.60;99.90;;;;;;5027314;28;20037;-66
2022/05/22 04:35:17;;;;;;;7.70;5.38;;;13.70;99.90;;;;;;5029236;28;20507;-65
2022/05/22 04:37:44;;;;;;;12.77;6.85;;;13.70;99.90;;;;;;5028835;28;20053;-65
2022/05/22 04:40:12;;;;;;;14.18;10.05;;;13.80;99.90;;;;;;5028680;28;20052;-64
2022/05/22 04:42:41;;;;;;;8.93;5.15;;;13.90;99.90;;;;;;5011240;28;20707;-65
2022/05/22 04:45:10;;;;;;;12.65;6.85;;;13.90;99.90;;;;;;5028243;28;20055;-65
2022/05/22 04:48:05;;;;;;;11.43;6.22;;;13.90;99.90;;;;;;5031095;28;20567;-65
2022/05/22 04:50:36;;;;;;;10.73;6.63;;;13.90;99.90;;;;;;5035638;28;20484;-65
2022/05/22 04:53:19;;;;;;;;;;;14.00;99.90;;;;;;5028278;28;20033;-65
2022/05/22 04:56:05;;;;;;;8.95;5.85;;;13.90;99.90;;;;;;5043400;28;19960;-65
2022/05/22 04:58:39;;;;;;;9.95;5.97;;;13.90;99.90;;;;;;5038822;28;20037;-65
2022/05/22 05:01:11;;;;;;;10.23;5.32;;;13.90;99.90;;;;;;5018327;28;20491;-67
2022/05/22 05:03:47;;;;;;;9.93;7.32;;;13.80;99.90;;;;;;5022775;28;20038;-65
2022/05/22 05:06:16;;;;;;;9.20;5.88;;;13.80;99.90;;;;;;5025999;28;20041;-65
2022/05/22 05:08:44;;;;;;;9.68;6.05;;;13.90;99.90;;;;;;5030712;28;20111;-65
2022/05/22 05:11:18;;;;;;;11.35;7.18;;;13.80;99.90;;;;;;5010390;28;20699;-64
2022/05/22 05:13:53;;;;;;;14.15;7.97;;;13.90;99.90;;;;;;5038693;28;20492;-65
2022/05/22 05:16:21;;;;;;;10.98;7.22;;;13.90;99.90;;;;;;5043557;28;20086;-65
2022/05/22 05:19:02;;;;;;;11.35;6.43;;;14.00;99.90;;;;;;5038874;28;20127;-65
2022/05/22 05:21:32;;;;;;;9.38;6.30;;;14.10;99.90;;;;;;5021358;28;20073;-65
2022/05/22 05:24:02;;;;;;;11.02;6.88;;;14.30;99.90;;;;;;5033702;28;20045;-66
2022/05/22 05:26:31;;;;;;;7.47;5.40;;;14.30;99.90;;;;;;5034335;28;20063;-65
2022/05/22 05:29:03;;;;;;;9.27;6.88;;;14.40;99.90;;;;;;5037209;28;20049;-65
2022/05/22 05:31:37;;;;;;;8.35;5.38;;;14.50;99.90;;;;;;5030238;28;20095;-65
2022/05/22 05:34:09;;;;;;;7.18;5.25;;;14.50;99.90;;;;;;5025252;28;20424;-65
2022/05/22 05:36:47;;;;;;;7.50;5.30;;;14.60;99.90;;;;;;5027056;28;20048;-65
2022/05/22 05:39:34;;;;;;;7.95;5.63;;;14.60;99.90;;;;;;5028177;28;20045;-65
2022/05/22 05:42:09;;;;;;;10.73;6.82;;;14.60;99.90;;;;;;5026680;28;20041;-65
2022/05/22 05:44:37;;;;;;;10.02;5.78;;;14.70;99.90;;;;;;5027164;28;20476;-65
2022/05/22 05:47:14;;;;;;;8.63;5.60;;;14.80;99.90;;;;;;5026010;28;20045;-65
2022/05/22 05:50:22;;;;;;;16.00;8.10;;;14.80;99.90;;;;;;5055101;28;20052;-66
2022/05/22 05:53:01;;;;;;;10.70;6.40;;;15.00;99.90;;;;;;5026537;28;20609;-66
2022/05/22 05:55:41;;;;;;;13.95;6.90;;;15.10;99.90;;;;;;5052335;28;20160;-66
2022/05/22 05:58:32;;;;;;;10.38;5.55;;;15.10;99.90;;;;;;5043583;28;20060;-64
2022/05/22 06:01:24;;;;;;;12.05;5.70;;;15.20;99.90;;;;;;5043972;28;20051;-64
2022/05/22 06:03:53;;;;;;;8.13;5.10;;;15.30;99.90;;;;;;5044088;28;20067;-64
2022/05/22 06:06:22;;;;;;;10.50;5.82;;;15.40;99.90;;;;;;5044716;28;20496;-65
2022/05/22 06:08:52;;;;;;;9.15;5.75;;;15.40;99.90;;;;;;5027791;28;20068;-65
2022/05/22 06:11:34;;;;;;;6.75;4.70;;;15.50;99.90;;;;;;5025319;28;20496;-66
2022/05/22 06:14:17;;;;;;;6.95;4.20;;;15.40;99.90;;;;;;5020871;28;20099;-66
2022/05/22 06:16:45;;;;;;;7.53;4.28;;;15.30;99.90;;;;;;5043326;28;20427;-65
2022/05/22 06:19:14;;;;;;;17.73;10.70;;;15.30;99.90;;;;;;5043887;28;20480;-65
2022/05/22 06:21:44;;;;;;;10.95;5.68;;;15.50;99.90;;;;;;5040612;28;20224;-65
2022/05/22 06:24:13;;;;;;;7.30;5.00;;;15.60;99.90;;;;;;5035311;28;20037;-65
2022/05/22 06:26:55;;;;;;;;;;;15.60;99.90;;;;;;5030612;28;20160;-66
2022/05/22 06:29:39;;;;;;;7.47;4.43;;;15.70;99.90;;;;;;5028209;28;19925;-65
2022/05/22 06:32:20;;;;;;;10.27;4.80;;;15.80;99.90;;;;;;5026453;28;20037;-66
2022/05/22 06:35:00;;;;;;;8.48;4.47;;;15.90;99.90;;;;;;5032184;28;20052;-65
2022/05/22 06:37:44;;;;;;;8.65;4.88;;;15.80;99.90;;;;;;5026062;28;20469;-64
2022/05/22 06:40:21;;;;;;;8.93;4.50;;;15.70;99.90;;;;;;5017214;28;20052;-65
2022/05/22 06:43:12;;;;;;;8.25;4.45;;;15.80;99.90;;;;;;5037593;28;20113;-66
2022/05/22 06:45:57;;;;;;;5.90;3.72;;;15.80;99.90;;;;;;5025150;28;20049;-66
2022/05/22 06:49:02;;;;;;;13.10;6.53;;;15.90;99.90;;;;;;5047539;28;20056;-66
2022/05/22 06:52:02;;;;;;;9.60;7.05;;;16.10;99.90;;;;;;5030925;28;20059;-65
2022/05/22 06:55:00;;;;;;;8.38;4.50;;;16.30;99.90;;;;;;4954102;28;20046;-65
2022/05/22 06:57:37;;;;;;;8.10;4.40;;;16.50;99.90;;;;;;4966992;28;20446;-66
2022/05/22 07:00:18;;;;;;;6.25;3.40;;;16.60;99.90;;;;;;4963221;28;20256;-66
2022/05/22 07:03:05;;;;;;;7.18;3.90;;;16.70;99.90;;;;;;4963939;28;20328;-66
2022/05/22 07:06:06;;;;;;;7.05;3.40;;;16.90;99.90;;;;;;4873444;29;20068;-66
2022/05/22 07:08:55;;;;;;;10.10;4.05;;;16.90;99.90;;;;;;4877954;29;20049;-64
2022/05/22 07:11:41;;;;;;;5.70;3.28;;;17.00;99.90;;;;;;4873964;29;20084;-66
2022/05/22 07:14:34;;;;;;;11.15;5.30;;;17.00;99.90;;;;;;4873131;29;20049;-66
2022/05/22 07:17:37;;;;;;;11.02;6.20;;;17.20;99.90;;;;;;4859155;29;20116;-65
2022/05/22 07:20:30;;;;;;;7.25;3.47;;;17.30;99.90;;;;;;4859011;29;20101;-66
2022/05/22 07:23:16;;;;;;;6.22;3.13;;;17.30;99.90;;;;;;4862090;29;20058;-65
2022/05/22 07:25:55;;;;;;;7.93;4.85;;;17.40;99.90;;;;;;4857709;29;20113;-66
2022/05/22 07:28:49;;;;;;;11.55;6.63;;;17.50;99.90;;;;;;4856029;29;20146;-66
2022/05/22 07:31:40;;;;;;;5.97;3.10;;;17.50;99.90;;;;;;4935312;28;20073;-66
2022/05/22 07:34:08;;;;;;;6.30;3.05;;;17.70;99.90;;;;;;4969551;28;20419;-64
2022/05/22 07:37:08;;;;;;;8.57;4.82;;;17.70;99.90;;;;;;4924979;29;20397;-65
2022/05/22 07:39:54;;;;;;;9.93;3.70;;;17.90;99.90;;;;;;4930442;29;20048;-65
2022/05/22 07:42:44;;;;;;;5.97;2.85;;;18.00;99.90;;;;;;4902192;29;20051;-66
2022/05/22 07:45:24;;;;;;;6.75;2.95;;;18.00;99.90;;;;;;4909601;29;20557;-65
2022/05/22 07:48:21;;;;;;;7.45;3.88;;;18.10;99.90;;;;;;4916722;29;20578;-64
2022/05/22 07:51:23;;;;;;;8.43;3.17;;;18.30;99.90;;;;;;4855850;29;20100;-65
2022/05/22 07:54:08;;;;;;;5.75;2.47;;;18.40;99.90;;;;;;4854420;29;20060;-65
2022/05/22 07:56:43;;;;;;;7.93;3.85;;;18.40;99.90;;;;;;4865247;29;20398;-65
2022/05/22 07:59:37;;;;;;;5.68;1.95;;;18.40;99.90;;;;;;4837459;29;20069;-65
2022/05/22 08:02:23;;;;;;;5.57;2.05;;;18.40;99.90;;;;;;4855852;29;20574;-65
2022/05/22 08:04:57;;;;;;;7.67;2.30;;;18.20;99.90;;;;;;4857643;29;20510;-66
2022/05/22 08:07:25;;;;;;;4.60;2.10;;;18.00;99.90;;;;;;4856140;29;20509;-66
2022/05/22 08:10:00;;;;;;;5.85;2.65;;;18.10;99.90;;;;;;4855414;29;20500;-66
2022/05/22 08:12:29;;;;;;;7.03;3.45;;;18.40;99.90;;;;;;4855550;29;20209;-65
2022/05/22 08:15:11;;;;;;;3.83;2.00;;;18.60;99.90;;;;;;4911334;29;20416;-65
2022/05/22 08:17:39;;;;;;;7.05;1.85;;;18.80;99.90;;;;;;4899009;29;20060;-65
2022/05/22 08:20:09;;;;;;;6.63;2.05;;;18.90;99.90;;;;;;4913915;29;20214;-65
2022/05/22 08:23:00;;;;;;;5.18;2.10;;;18.80;99.90;;;;;;4948218;28;20043;-66
2022/05/22 08:25:46;;;;;;;4.28;1.92;;;18.80;99.90;;;;;;4977532;28;20199;-64
2022/05/22 08:28:15;;;;;;;4.43;2.28;;;18.80;99.90;;;;;;4997580;28;20044;-65
2022/05/22 08:30:44;;;;;;;8.52;2.78;;;18.80;99.90;;;;;;5029580;28;20121;-66
2022/05/22 08:33:13;;;;;;;6.57;2.78;;;18.90;99.90;;;;;;5026751;28;20132;-69
2022/05/22 08:35:43;;;;;;;5.90;2.03;;;18.90;99.90;;;;;;5026873;28;20512;-70
2022/05/22 08:38:11;;;;;;;6.32;2.75;;;18.70;99.90;;;;;;5028952;28;20061;-71
2022/05/22 08:40:46;;;;;;;4.72;1.95;;;18.90;99.90;;;;;;5028730;28;20061;-70
2022/05/22 08:43:20;;;;;;;5.00;2.28;;;19.10;99.90;;;;;;5042642;28;20488;-70
2022/05/22 08:45:59;;;;;;;5.55;1.80;;;19.20;99.90;;;;;;5028962;28;20049;-70
2022/05/22 08:48:37;;;;;;;4.78;1.77;;;19.20;99.90;;;;;;5031666;28;20585;-70
2022/05/22 08:51:13;;;;;;;4.65;1.98;;;19.20;99.90;;;;;;5030253;28;20444;-69
2022/05/22 08:53:50;;;;;;;5.05;1.90;;;19.30;99.90;;;;;;5030195;28;20420;-70
2022/05/22 08:59:23;;;;;;;4.28;1.60;;;19.60;99.90;;;;;;5020732;28;20152;-69
2022/05/22 09:02:21;;;;;;;5.00;1.55;;;19.50;99.90;;;;;;5050676;28;20099;-70
2022/05/22 09:05:06;;;;;;;3.75;1.95;;;19.50;99.90;;;;;;5035558;28;20049;-70
2022/05/22 09:07:53;;;;;;;6.55;4.25;;;19.60;99.90;;;;;;5029640;28;20120;-69
2022/05/22 09:10:25;;;;;;;3.50;1.52;;;19.80;99.90;;;;;;5020264;28;20095;-68
2022/05/22 09:13:10;;;;;;;6.38;2.20;;;20.10;99.90;;;;;;5029385;28;20045;-69
2022/05/22 09:16:24;;;;;;;7.18;3.03;;;20.20;99.90;;;;;;5029053;28;20045;-69
2022/05/22 09:18:57;;;;;;;3.95;1.77;;;20.50;99.90;;;;;;5029073;28;20058;-69
2022/05/22 09:21:36;;;;;;;3.75;1.90;;;20.70;99.90;;;;;;5029028;28;20512;-69
2022/05/22 09:24:22;;;;;;;4.28;1.77;;;20.70;99.90;;;;;;5028229;28;20561;-70
2022/05/22 09:27:07;;;;;;;5.20;2.40;;;20.90;99.90;;;;;;5021470;28;20504;-70
2022/05/22 09:29:43;;;;;;;5.07;2.20;;;21.40;99.90;;;;;;5016528;28;20057;-70
2022/05/22 09:32:10;;;;;;;5.20;2.00;;;21.50;99.90;;;;;;5028957;28;20050;-68
2022/05/22 09:35:05;;;;;;;8.48;4.28;;;22.00;99.90;;;;;;5031616;28;20496;-69
2022/05/22 09:38:14;;;;;;;6.13;1.80;;;22.20;99.90;;;;;;5029256;28;20491;-70
2022/05/22 09:40:48;;;;;;;3.63;1.35;;;22.50;99.90;;;;;;5026197;28;20107;-70
2022/05/22 09:43:44;;;;;;;4.90;1.83;;;22.70;99.90;;;;;;5046183;28;20075;-70
2022/05/22 09:46:39;;;;;;;5.43;1.92;;;22.90;99.90;;;;;;5048951;28;20045;-70
2022/05/22 09:49:30;;;;;;;4.88;1.88;;;23.20;99.90;;;;;;5047491;28;20101;-71
2022/05/22 09:52:17;;;;;;;4.07;1.70;;;23.30;99.90;;;;;;5046385;28;20444;-70
2022/05/22 09:55:04;;;;;;;4.97;1.95;;;23.30;99.90;;;;;;5045170;28;20133;-66
2022/05/22 09:57:59;;;;;;;4.40;2.25;;;23.30;99.90;;;;;;5052219;28;20184;-66
2022/05/22 10:00:51;;;;;;;3.97;1.70;;;23.50;99.90;;;;;;5045444;28;20037;-66
2022/05/22 10:03:28;;;;;;;;;;;23.30;99.90;;;;;;5045822;28;20053;-64
2022/05/22 10:06:14;;;;;;;17.92;10.43;;;23.20;99.90;;;;;;5057088;28;20494;-66
2022/05/22 10:09:12;;;;;;;24.98;14.30;;;22.90;99.90;;;;;;5062997;28;20130;-66
2022/05/22 10:12:02;;;;;;;8.15;2.80;;;22.50;99.90;;;;;;5061922;28;20078;-66
2022/05/22 10:15:05;;;;;;;6.00;2.97;;;22.30;99.90;;;;;;5050229;28;20063;-66
2022/05/22 10:18:01;;;;;;;9.68;4.35;;;22.40;99.90;;;;;;5041486;28;20045;-66
2022/05/22 10:20:47;;;;;;;4.45;2.67;;;22.70;99.90;;;;;;5036878;28;20095;-65
2022/05/22 10:23:33;;;;;;;4.85;2.05;;;22.90;99.90;;;;;;5039627;28;20041;-65
2022/05/22 10:26:32;;;;;;;6.35;2.88;;;23.00;99.90;;;;;;5041077;28;20128;-66
2022/05/22 10:29:25;;;;;;;10.60;7.97;;;23.30;99.90;;;;;;5031092;28;20037;-65
2022/05/22 10:32:03;;;;;;;8.68;3.40;;;23.80;99.90;;;;;;5038083;28;20579;-65
2022/05/22 10:34:49;;;;;;;7.43;3.75;;;24.10;99.90;;;;;;5028637;28;20115;-65
2022/05/22 10:37:34;;;;;;;5.63;2.78;;;24.50;99.90;;;;;;5022966;28;20504;-65
2022/05/22 10:40:05;;;;;;;7.13;3.58;;;24.70;99.90;;;;;;5041131;28;20655;-65
2022/05/22 10:42:45;;;;;;;6.72;2.20;;;24.70;99.90;;;;;;5044846;28;20131;-65
2022/05/22 10:45:36;;;;;;;4.75;2.00;;;24.50;99.90;;;;;;5042103;28;20049;-65
2022/05/22 10:48:11;;;;;;;5.53;2.05;;;24.30;99.90;;;;;;5023243;28;20489;-65
2022/05/22 10:51:09;;;;;;;6.43;1.73;;;24.00;99.90;;;;;;5046888;28;20144;-65
2022/05/22 10:53:57;;;;;;;4.68;2.03;;;23.90;99.90;;;;;;5045483;28;20488;-66
2022/05/22 10:56:33;;;;;;;4.63;1.65;;;24.20;99.90;;;;;;5047738;28;20091;-66
2022/05/22 10:59:18;;;;;;;4.70;1.85;;;24.20;99.90;;;;;;5033130;28;20827;-66
2022/05/22 11:02:04;;;;;;;7.47;2.17;;;24.60;99.90;;;;;;5011768;28;20603;-65
2022/05/22 11:04:41;;;;;;;4.15;1.60;;;24.90;99.90;;;;;;5031335;28;20060;-66
2022/05/22 11:07:12;;;;;;;6.85;2.08;;;25.30;99.90;;;;;;5033825;28;20042;-66
2022/05/22 11:09:51;;;;;;;7.40;2.22;;;25.30;99.40;;;;;;5031396;28;20096;-67
2022/05/22 11:12:25;;;;;;;5.88;2.05;;;25.10;99.80;;;;;;5027849;28;20057;-66
2022/05/22 11:15:08;;;;;;;5.63;2.00;;;25.40;99.90;;;;;;5030224;28;20461;-66
2022/05/22 11:17:36;;;;;;;6.65;1.92;;;25.80;98.80;;;;;;5036911;28;20045;-67
2022/05/22 11:20:18;;;;;;;4.65;1.83;;;26.00;97.50;;;;;;5019703;28;20046;-67
2022/05/22 11:23:25;;;;;;;4.20;2.13;;;26.20;97.00;;;;;;5034281;28;20080;-66
2022/05/22 11:26:05;;;;;;;7.20;2.13;;;27.10;96.80;;;;;;5034908;28;20363;-66
2022/05/22 11:29:02;;;;;;;5.20;1.73;;;27.60;95.20;;;;;;5030264;28;20069;-67
2022/05/22 11:31:35;;;;;;;6.57;3.10;;;27.40;94.10;;;;;;5026461;28;20041;-66
2022/05/22 11:34:27;;;;;;;4.65;1.58;;;27.20;94.40;;;;;;5028063;28;20136;-65
2022/05/22 11:37:33;;;;;;;5.88;1.90;;;27.50;93.60;;;;;;5021548;28;20439;-65
2022/05/22 11:40:29;;;;;;;6.43;2.00;;;26.60;93.50;;;;;;5027848;28;20049;-66
2022/05/22 11:43:39;;;;;;;5.10;2.10;;;26.50;93.50;;;;;;5031286;28;20522;-65
2022/05/22 11:46:20;;;;;;;5.47;2.00;;;26.60;93.30;;;;;;5035545;28;20635;-66
2022/05/22 11:49:07;;;;;;;;;;;26.80;93.90;;;;;;5022754;28;20528;-65
2022/05/22 11:52:05;;;;;;;3.83;1.83;;;27.30;94.00;;;;;;5028298;28;19985;-66
2022/05/22 11:54:36;;;;;;;3.17;1.88;;;27.60;93.10;;;;;;5036018;28;20068;-65
2022/05/22 11:57:16;;;;;;;4.18;1.90;;;27.70;93.40;;;;;;5029926;28;20045;-65
2022/05/22 12:00:08;;;;;;;4.97;1.85;;;27.90;92.00;;;;;;5023147;28;20505;-65
2022/05/22 12:02:55;;;;;;;4.40;1.63;;;27.80;91.70;;;;;;5025792;28;20045;-66
2022/05/22 12:05:45;;;;;;;3.55;1.90;;;27.90;91.40;;;;;;5027600;28;20080;-66
2022/05/22 12:08:15;;;;;;;7.22;3.00;;;27.90;90.80;;;;;;5029767;28;20124;-66
2022/05/22 12:11:06;;;;;;;3.78;1.50;;;27.90;90.90;;;;;;5029893;28;20041;-66
2022/05/22 12:13:44;;;;;;;4.30;1.98;;;28.60;90.60;;;;;;5036952;28;20536;-66
2022/05/22 12:16:30;;;;;;;3.95;1.67;;;29.30;89.70;;;;;;5030191;28;20049;-66
2022/05/22 12:19:15;;;;;;;3.72;1.70;;;29.60;88.70;;;;;;5035832;28;20433;-66
2022/05/22 12:21:42;;;;;;;6.13;1.92;;;30.10;87.60;;;;;;5002056;28;20705;-66
2022/05/22 12:24:19;;;;;;;3.83;2.05;;;30.70;85.10;;;;;;5034974;28;20553;-66
2022/05/22 12:26:47;;;;;;;6.15;1.70;;;31.00;85.70;;;;;;5034939;28;20049;-66
2022/05/22 12:29:25;;;;;;;4.03;1.95;;;31.20;82.40;;;;;;5027709;28;20160;-66
2022/05/22 12:31:56;;;;;;;3.67;1.63;;;29.80;83.10;;;;;;5023784;28;20068;-66
2022/05/22 12:34:37;;;;;;;5.88;2.03;;;30.40;83.10;;;;;;5022131;28;20141;-67
2022/05/22 12:37:11;;;;;;;5.57;2.20;;;30.70;82.20;;;;;;5032092;28;20084;-67
2022/05/22 12:39:50;;;;;;;6.28;1.60;;;29.90;82.40;;;;;;5040886;28;20116;-67
2022/05/22 12:42:30;;;;;;;4.10;1.80;;;29.90;81.60;;;;;;5032465;28;20136;-67
2022/05/22 12:44:58;;;;;;;4.00;1.77;;;29.80;82.40;;;;;;5026720;28;20041;-67
2022/05/22 12:47:39;;;;;;;4.57;1.60;;;30.30;81.20;;;;;;5032747;28;20041;-67
2022/05/22 12:50:07;;;;;;;4.82;1.48;;;30.50;81.20;;;;;;5040165;28;20643;-67
2022/05/22 12:52:35;;;;;;;6.60;1.70;;;30.50;80.40;;;;;;5043819;28;20098;-66
2022/05/22 12:55:30;;;;;;;3.20;1.40;;;30.90;80.40;;;;;;5034282;28;20045;-67
2022/05/22 12:58:00;;;;;;;5.70;1.83;;;31.20;78.40;;;;;;5029232;28;20072;-66
2022/05/22 13:00:42;;;;;;;3.42;1.60;;;31.40;79.30;;;;;;5044177;28;20045;-66
2022/05/22 13:03:32;;;;;;;;;;;31.90;78.00;;;;;;5029004;28;20067;-65
2022/05/22 13:06:08;;;;;;;4.13;1.70;;;32.30;76.30;;;;;;5027636;28;19925;-66
2022/05/22 13:08:55;;;;;;;3.75;1.67;;;32.30;75.40;;;;;;5028270;28;20049;-65
2022/05/22 13:11:38;;;;;;;4.72;1.60;;;32.10;75.10;;;;;;5028080;28;20125;-66
2022/05/22 13:14:25;;;;;;;3.83;1.65;;;31.50;76.50;;;;;;5028937;28;20048;-65
2022/05/22 13:16:53;;;;;;;3.22;1.23;;;32.20;75.40;;;;;;5027833;28;20060;-65
2022/05/22 13:19:23;;;;;;;3.60;1.60;;;32.40;74.80;;;;;;5037678;28;20080;-67
2022/05/22 13:21:56;;;;;;;4.28;1.73;;;31.80;73.60;;;;;;5028200;28;20515;-66
2022/05/22 13:24:30;;;;;;;4.18;2.00;;;31.10;75.10;;;;;;5037227;28;20083;-66
2022/05/22 13:27:05;;;;;;;6.65;1.95;;;31.50;74.60;;;;;;5028443;28;20575;-65
2022/05/22 13:29:42;;;;;;;5.47;1.90;;;31.40;74.90;;;;;;5027994;28;20069;-66
2022/05/22 13:32:17;;;;;;;5.75;1.73;;;31.50;74.40;;;;;;5024675;28;20045;-66
2022/05/22 13:34:50;;;;;;;3.45;1.60;;;30.40;74.60;;;;;;5023802;28;20053;-66
2022/05/22 13:37:28;;;;;;;3.83;1.80;;;30.30;76.00;;;;;;5028173;28;20076;-67
2022/05/22 13:40:05;;;;;;;3.58;1.30;;;30.80;74.40;;;;;;5027835;28;20045;-66
2022/05/22 13:43:01;;;;;;;4.70;1.50;;;32.10;74.00;;;;;;5026919;28;20072;-66
2022/05/22 13:45:49;;;;;;;5.80;1.70;;;33.30;73.50;;;;;;5028749;28;20509;-66
2022/05/22 13:48:38;;;;;;;3.85;1.63;;;34.70;72.10;;;;;;5028352;28;20053;-66